Terminal Aerodrome Forecast
Issued by NWS

Home | Current Version | Previous Version | Text Only | Print | Product List | Glossary On
Versions: 1 2 3 4 5 6 7 8 9 10 11 12 13 14 15 16 17 18 19 20 21 22
000
FTUS41 KCAR 280520
TAFHUL
TAF
KHUL 280520Z 2806/2906 00000KT P6SM SKC
     FM280800 00000KT 3SM BR SKC
     FM281000 31005KT 1 1/2SM BR SCT003
     FM281200 30006KT P6SM SKC
     FM281500 28008KT P6SM FEW080 SCT250=

USA.gov is the U.S. government's official web portal to all federal, state and local government web resources and services.